sensor_id;sensor_type;location;lat;lon;timestamp;temperature;humidity
81315;DHT22;70781;52.510;5.718;2023-08-06T00:00:10;15.50;79.80
81315;DHT22;70781;52.510;5.718;2023-08-06T00:02:41;15.50;79.80
81315;DHT22;70781;52.510;5.718;2023-08-06T00:05:13;15.50;79.80
81315;DHT22;70781;52.510;5.718;2023-08-06T00:07:44;15.50;79.80
81315;DHT22;70781;52.510;5.718;2023-08-06T00:10:13;15.50;79.80
81315;DHT22;70781;52.510;5.718;2023-08-06T00:12:43;15.50;79.80
81315;DHT22;70781;52.510;5.718;2023-08-06T00:15:12;15.50;79.80
81315;DHT22;70781;52.510;5.718;2023-08-06T00:17:41;15.50;79.80
81315;DHT22;70781;52.510;5.718;2023-08-06T00:20:13;15.50;79.80
81315;DHT22;70781;52.510;5.718;2023-08-06T00:22:42;15.50;79.90
81315;DHT22;70781;52.510;5.718;2023-08-06T00:25:11;15.50;79.90
81315;DHT22;70781;52.510;5.718;2023-08-06T00:27:41;15.50;80.00
81315;DHT22;70781;52.510;5.718;2023-08-06T00:30:11;15.50;79.90
81315;DHT22;70781;52.510;5.718;2023-08-06T00:32:40;15.50;79.90
81315;DHT22;70781;52.510;5.718;2023-08-06T00:35:09;15.50;80.00
81315;DHT22;70781;52.510;5.718;2023-08-06T00:37:42;15.50;80.00
81315;DHT22;70781;52.510;5.718;2023-08-06T00:40:12;15.50;80.00
81315;DHT22;70781;52.510;5.718;2023-08-06T00:42:41;15.50;80.00
81315;DHT22;70781;52.510;5.718;2023-08-06T00:45:11;15.50;80.00
81315;DHT22;70781;52.510;5.718;2023-08-06T00:47:41;15.50;80.00
81315;DHT22;70781;52.510;5.718;2023-08-06T00:50:11;15.50;80.10
81315;DHT22;70781;52.510;5.718;2023-08-06T00:52:43;15.50;80.00
81315;DHT22;70781;52.510;5.718;2023-08-06T00:55:12;15.50;80.10
81315;DHT22;70781;52.510;5.718;2023-08-06T00:57:41;15.50;80.10
81315;DHT22;70781;52.510;5.718;2023-08-06T01:00:12;15.50;80.10
81315;DHT22;70781;52.510;5.718;2023-08-06T01:02:41;15.50;80.20
81315;DHT22;70781;52.510;5.718;2023-08-06T01:05:10;15.50;80.10
81315;DHT22;70781;52.510;5.718;2023-08-06T01:07:50;15.50;80.20
81315;DHT22;70781;52.510;5.718;2023-08-06T01:10:30;15.50;80.20
81315;DHT22;70781;52.510;5.718;2023-08-06T01:13:08;15.50;80.20
81315;DHT22;70781;52.510;5.718;2023-08-06T01:15:43;15.50;80.20
81315;DHT22;70781;52.510;5.718;2023-08-06T01:18:14;15.40;80.20
81315;DHT22;70781;52.510;5.718;2023-08-06T01:20:46;15.40;80.20
81315;DHT22;70781;52.510;5.718;2023-08-06T01:23:16;15.40;80.20
81315;DHT22;70781;52.510;5.718;2023-08-06T01:25:50;15.40;80.20
81315;DHT22;70781;52.510;5.718;2023-08-06T01:28:27;15.40;80.30
81315;DHT22;70781;52.510;5.718;2023-08-06T01:31:02;15.40;80.20
81315;DHT22;70781;52.510;5.718;2023-08-06T01:33:32;15.40;80.20
81315;DHT22;70781;52.510;5.718;2023-08-06T01:36:06;15.40;80.20
81315;DHT22;70781;52.510;5.718;2023-08-06T01:38:35;15.40;80.30
81315;DHT22;70781;52.510;5.718;2023-08-06T01:41:04;15.40;80.20
81315;DHT22;70781;52.510;5.718;2023-08-06T01:43:34;15.40;80.40
81315;DHT22;70781;52.510;5.718;2023-08-06T01:46:03;15.40;80.30
81315;DHT22;70781;52.510;5.718;2023-08-06T01:48:32;15.40;80.30
81315;DHT22;70781;52.510;5.718;2023-08-06T01:51:06;15.40;80.40
81315;DHT22;70781;52.510;5.718;2023-08-06T01:53:36;15.40;80.40
81315;DHT22;70781;52.510;5.718;2023-08-06T01:56:05;15.40;80.30
81315;DHT22;70781;52.510;5.718;2023-08-06T01:58:35;15.40;80.30
81315;DHT22;70781;52.510;5.718;2023-08-06T02:01:04;15.40;80.40
81315;DHT22;70781;52.510;5.718;2023-08-06T02:03:33;15.40;80.40
81315;DHT22;70781;52.510;5.718;2023-08-06T02:06:03;15.40;80.40
81315;DHT22;70781;52.510;5.718;2023-08-06T02:08:34;15.40;80.40
81315;DHT22;70781;52.510;5.718;2023-08-06T02:11:04;15.30;80.40
81315;DHT22;70781;52.510;5.718;2023-08-06T02:13:34;15.30;80.50
81315;DHT22;70781;52.510;5.718;2023-08-06T02:16:03;15.30;80.50
81315;DHT22;70781;52.510;5.718;2023-08-06T02:18:36;15.30;80.50
81315;DHT22;70781;52.510;5.718;2023-08-06T02:21:05;15.30;80.50
81315;DHT22;70781;52.510;5.718;2023-08-06T02:23:37;15.40;80.50
81315;DHT22;70781;52.510;5.718;2023-08-06T02:26:06;15.30;80.50
81315;DHT22;70781;52.510;5.718;2023-08-06T02:28:35;15.30;80.50
81315;DHT22;70781;52.510;5.718;2023-08-06T02:31:04;15.30;80.50
81315;DHT22;70781;52.510;5.718;2023-08-06T02:33:35;15.30;80.50
81315;DHT22;70781;52.510;5.718;2023-08-06T02:36:05;15.30;80.50
81315;DHT22;70781;52.510;5.718;2023-08-06T02:38:36;15.30;80.50
81315;DHT22;70781;52.510;5.718;2023-08-06T02:41:06;15.30;80.50
81315;DHT22;70781;52.510;5.718;2023-08-06T02:43:35;15.30;80.50
81315;DHT22;70781;52.510;5.718;2023-08-06T02:46:05;15.30;80.60
81315;DHT22;70781;52.510;5.718;2023-08-06T02:48:34;15.40;80.60
81315;DHT22;70781;52.510;5.718;2023-08-06T02:51:03;15.40;80.50
81315;DHT22;70781;52.510;5.718;2023-08-06T02:53:36;15.40;80.50
81315;DHT22;70781;52.510;5.718;2023-08-06T02:56:08;15.40;80.50
81315;DHT22;70781;52.510;5.718;2023-08-06T02:58:55;15.30;80.50
81315;DHT22;70781;52.510;5.718;2023-08-06T03:01:37;15.30;80.60
81315;DHT22;70781;52.510;5.718;2023-08-06T03:04:15;15.30;80.60
81315;DHT22;70781;52.510;5.718;2023-08-06T03:06:46;15.40;80.50
81315;DHT22;70781;52.510;5.718;2023-08-06T03:09:18;15.30;80.60
81315;DHT22;70781;52.510;5.718;2023-08-06T03:11:48;15.30;80.70
81315;DHT22;70781;52.510;5.718;2023-08-06T03:14:18;15.40;80.70
81315;DHT22;70781;52.510;5.718;2023-08-06T03:16:47;15.40;80.70
81315;DHT22;70781;52.510;5.718;2023-08-06T03:19:19;15.40;80.70
81315;DHT22;70781;52.510;5.718;2023-08-06T03:21:48;15.40;80.70
81315;DHT22;70781;52.510;5.718;2023-08-06T03:24:20;15.40;80.70
81315;DHT22;70781;52.510;5.718;2023-08-06T03:26:49;15.40;80.70
81315;DHT22;70781;52.510;5.718;2023-08-06T03:29:18;15.40;80.70
81315;DHT22;70781;52.510;5.718;2023-08-06T03:31:49;15.40;80.70
81315;DHT22;70781;52.510;5.718;2023-08-06T03:34:19;15.40;80.70
81315;DHT22;70781;52.510;5.718;2023-08-06T03:36:50;15.40;80.60
81315;DHT22;70781;52.510;5.718;2023-08-06T03:39:21;15.40;80.70
81315;DHT22;70781;52.510;5.718;2023-08-06T03:41:51;15.40;80.70
81315;DHT22;70781;52.510;5.718;2023-08-06T03:44:21;15.40;80.70
81315;DHT22;70781;52.510;5.718;2023-08-06T03:46:50;15.40;80.70
81315;DHT22;70781;52.510;5.718;2023-08-06T03:49:20;15.40;80.70
81315;DHT22;70781;52.510;5.718;2023-08-06T03:51:49;15.40;80.70
81315;DHT22;70781;52.510;5.718;2023-08-06T03:54:21;15.40;80.70
81315;DHT22;70781;52.510;5.718;2023-08-06T03:56:50;15.50;80.60
81315;DHT22;70781;52.510;5.718;2023-08-06T03:59:19;15.40;80.70
81315;DHT22;70781;52.510;5.718;2023-08-06T04:01:49;15.40;80.60
81315;DHT22;70781;52.510;5.718;2023-08-06T04:04:18;15.40;80.70
81315;DHT22;70781;52.510;5.718;2023-08-06T04:06:47;15.40;80.70
81315;DHT22;70781;52.510;5.718;2023-08-06T04:09:16;15.40;80.70
81315;DHT22;70781;52.510;5.718;2023-08-06T04:11:48;15.40;80.70
81315;DHT22;70781;52.510;5.718;2023-08-06T04:14:17;15.30;80.80
81315;DHT22;70781;52.510;5.718;2023-08-06T04:16:46;15.30;80.80
81315;DHT22;70781;52.510;5.718;2023-08-06T04:19:16;15.30;80.80
81315;DHT22;70781;52.510;5.718;2023-08-06T04:21:45;15.30;80.80
81315;DHT22;70781;52.510;5.718;2023-08-06T04:24:14;15.30;80.80
81315;DHT22;70781;52.510;5.718;2023-08-06T04:26:44;15.30;80.80
81315;DHT22;70781;52.510;5.718;2023-08-06T04:29:16;15.30;80.80
81315;DHT22;70781;52.510;5.718;2023-08-06T04:31:45;15.30;80.90
81315;DHT22;70781;52.510;5.718;2023-08-06T04:34:14;15.30;80.90
81315;DHT22;70781;52.510;5.718;2023-08-06T04:36:44;15.30;80.80
81315;DHT22;70781;52.510;5.718;2023-08-06T04:39:16;15.30;80.80
81315;DHT22;70781;52.510;5.718;2023-08-06T04:41:45;15.20;80.90
81315;DHT22;70781;52.510;5.718;2023-08-06T04:44:17;15.20;80.90
81315;DHT22;70781;52.510;5.718;2023-08-06T04:46:46;15.20;80.90
81315;DHT22;70781;52.510;5.718;2023-08-06T04:49:16;15.20;80.90
81315;DHT22;70781;52.510;5.718;2023-08-06T04:51:45;15.20;80.90
81315;DHT22;70781;52.510;5.718;2023-08-06T04:54:14;15.20;80.90
81315;DHT22;70781;52.510;5.718;2023-08-06T04:56:43;15.20;81.00
81315;DHT22;70781;52.510;5.718;2023-08-06T04:59:12;15.10;81.00
81315;DHT22;70781;52.510;5.718;2023-08-06T05:01:44;15.20;81.00
81315;DHT22;70781;52.510;5.718;2023-08-06T05:04:13;15.20;81.00
81315;DHT22;70781;52.510;5.718;2023-08-06T05:06:42;15.20;81.00
81315;DHT22;70781;52.510;5.718;2023-08-06T05:09:12;15.20;81.00
81315;DHT22;70781;52.510;5.718;2023-08-06T05:11:41;15.20;80.90
81315;DHT22;70781;52.510;5.718;2023-08-06T05:14:10;15.20;80.90
81315;DHT22;70781;52.510;5.718;2023-08-06T05:16:39;15.20;81.00
81315;DHT22;70781;52.510;5.718;2023-08-06T05:19:11;15.20;81.10
81315;DHT22;70781;52.510;5.718;2023-08-06T05:21:40;15.20;81.00
81315;DHT22;70781;52.510;5.718;2023-08-06T05:24:09;15.20;81.00
81315;DHT22;70781;52.510;5.718;2023-08-06T05:26:39;15.20;81.00
81315;DHT22;70781;52.510;5.718;2023-08-06T05:29:08;15.20;81.00
81315;DHT22;70781;52.510;5.718;2023-08-06T05:31:37;15.20;81.00
81315;DHT22;70781;52.510;5.718;2023-08-06T05:34:07;15.20;81.00
81315;DHT22;70781;52.510;5.718;2023-08-06T05:36:39;15.30;81.00
81315;DHT22;70781;52.510;5.718;2023-08-06T05:39:08;15.30;81.00
81315;DHT22;70781;52.510;5.718;2023-08-06T05:41:37;15.30;81.00
81315;DHT22;70781;52.510;5.718;2023-08-06T05:44:06;15.30;80.90
81315;DHT22;70781;52.510;5.718;2023-08-06T05:46:36;15.30;80.90
81315;DHT22;70781;52.510;5.718;2023-08-06T05:49:05;15.30;81.00
81315;DHT22;70781;52.510;5.718;2023-08-06T05:51:34;15.30;81.00
81315;DHT22;70781;52.510;5.718;2023-08-06T05:54:06;15.30;81.00
81315;DHT22;70781;52.510;5.718;2023-08-06T05:56:35;15.30;81.00
81315;DHT22;70781;52.510;5.718;2023-08-06T05:59:04;15.40;81.00
81315;DHT22;70781;52.510;5.718;2023-08-06T06:01:33;15.40;81.00
81315;DHT22;70781;52.510;5.718;2023-08-06T06:04:03;15.40;81.00
81315;DHT22;70781;52.510;5.718;2023-08-06T06:06:32;15.40;81.00
81315;DHT22;70781;52.510;5.718;2023-08-06T06:09:01;15.40;80.90
81315;DHT22;70781;52.510;5.718;2023-08-06T06:11:33;15.40;80.90
81315;DHT22;70781;52.510;5.718;2023-08-06T06:14:02;15.40;81.00
81315;DHT22;70781;52.510;5.718;2023-08-06T06:16:31;15.40;81.00
81315;DHT22;70781;52.510;5.718;2023-08-06T06:19:01;15.40;81.00
81315;DHT22;70781;52.510;5.718;2023-08-06T06:21:30;15.40;81.00
81315;DHT22;70781;52.510;5.718;2023-08-06T06:23:59;15.50;81.00
81315;DHT22;70781;52.510;5.718;2023-08-06T06:26:29;15.50;81.00
81315;DHT22;70781;52.510;5.718;2023-08-06T06:29:00;15.60;80.90
81315;DHT22;70781;52.510;5.718;2023-08-06T06:31:30;15.60;80.90
81315;DHT22;70781;52.510;5.718;2023-08-06T06:33:59;15.60;80.90
81315;DHT22;70781;52.510;5.718;2023-08-06T06:36:28;15.60;80.90
81315;DHT22;70781;52.510;5.718;2023-08-06T06:38:57;15.60;80.90
81315;DHT22;70781;52.510;5.718;2023-08-06T06:41:26;15.70;80.80
81315;DHT22;70781;52.510;5.718;2023-08-06T06:44:06;15.70;80.80
81315;DHT22;70781;52.510;5.718;2023-08-06T06:46:36;15.70;80.90
81315;DHT22;70781;52.510;5.718;2023-08-06T06:49:05;15.70;80.80
81315;DHT22;70781;52.510;5.718;2023-08-06T06:51:34;15.70;80.90
81315;DHT22;70781;52.510;5.718;2023-08-06T06:54:03;15.80;80.80
81315;DHT22;70781;52.510;5.718;2023-08-06T06:56:32;15.80;80.80
81315;DHT22;70781;52.510;5.718;2023-08-06T06:59:02;15.80;80.80
81315;DHT22;70781;52.510;5.718;2023-08-06T07:01:33;15.80;80.80
81315;DHT22;70781;52.510;5.718;2023-08-06T07:04:03;15.80;80.90
81315;DHT22;70781;52.510;5.718;2023-08-06T07:06:32;15.90;80.80
81315;DHT22;70781;52.510;5.718;2023-08-06T07:09:01;15.90;80.90
81315;DHT22;70781;52.510;5.718;2023-08-06T07:11:30;16.00;80.80
81315;DHT22;70781;52.510;5.718;2023-08-06T07:14:00;16.00;80.70
81315;DHT22;70781;52.510;5.718;2023-08-06T07:16:29;16.00;80.80
81315;DHT22;70781;52.510;5.718;2023-08-06T07:19:00;16.00;80.80
81315;DHT22;70781;52.510;5.718;2023-08-06T07:21:31;16.00;80.80
81315;DHT22;70781;52.510;5.718;2023-08-06T07:24:00;16.00;80.80
81315;DHT22;70781;52.510;5.718;2023-08-06T07:26:29;16.10;80.80
81315;DHT22;70781;52.510;5.718;2023-08-06T07:28:59;16.10;80.80
81315;DHT22;70781;52.510;5.718;2023-08-06T07:31:28;16.10;80.80
81315;DHT22;70781;52.510;5.718;2023-08-06T07:34:00;16.10;80.80
81315;DHT22;70781;52.510;5.718;2023-08-06T07:36:29;16.10;80.70
81315;DHT22;70781;52.510;5.718;2023-08-06T07:38:58;16.10;80.80
81315;DHT22;70781;52.510;5.718;2023-08-06T07:41:27;16.20;80.70
81315;DHT22;70781;52.510;5.718;2023-08-06T07:43:56;16.10;80.70
81315;DHT22;70781;52.510;5.718;2023-08-06T07:46:26;16.20;80.70
81315;DHT22;70781;52.510;5.718;2023-08-06T07:48:55;16.20;80.70
81315;DHT22;70781;52.510;5.718;2023-08-06T07:51:26;16.20;80.70
81315;DHT22;70781;52.510;5.718;2023-08-06T07:53:56;16.30;80.70
81315;DHT22;70781;52.510;5.718;2023-08-06T07:56:25;16.30;80.70
81315;DHT22;70781;52.510;5.718;2023-08-06T07:58:54;16.40;80.60
81315;DHT22;70781;52.510;5.718;2023-08-06T08:01:23;16.40;80.70
81315;DHT22;70781;52.510;5.718;2023-08-06T08:03:52;16.40;80.70
81315;DHT22;70781;52.510;5.718;2023-08-06T08:06:22;16.40;80.60
81315;DHT22;70781;52.510;5.718;2023-08-06T08:08:54;16.40;80.60
81315;DHT22;70781;52.510;5.718;2023-08-06T08:11:23;16.40;80.70
81315;DHT22;70781;52.510;5.718;2023-08-06T08:13:52;16.40;80.60
81315;DHT22;70781;52.510;5.718;2023-08-06T08:16:21;16.40;80.60
81315;DHT22;70781;52.510;5.718;2023-08-06T08:18:51;16.40;80.70
81315;DHT22;70781;52.510;5.718;2023-08-06T08:21:20;16.40;80.60
81315;DHT22;70781;52.510;5.718;2023-08-06T08:23:50;16.50;80.60
81315;DHT22;70781;52.510;5.718;2023-08-06T08:26:22;16.50;80.50
81315;DHT22;70781;52.510;5.718;2023-08-06T08:28:53;16.50;80.60
81315;DHT22;70781;52.510;5.718;2023-08-06T08:31:23;16.50;80.50
81315;DHT22;70781;52.510;5.718;2023-08-06T08:33:52;16.50;80.50
81315;DHT22;70781;52.510;5.718;2023-08-06T08:36:21;16.50;80.50
81315;DHT22;70781;52.510;5.718;2023-08-06T08:38:50;16.50;80.50
81315;DHT22;70781;52.510;5.718;2023-08-06T08:41:23;16.50;80.50
81315;DHT22;70781;52.510;5.718;2023-08-06T08:43:52;16.60;80.50
81315;DHT22;70781;52.510;5.718;2023-08-06T08:46:22;16.50;80.50
81315;DHT22;70781;52.510;5.718;2023-08-06T08:48:52;16.60;80.40
81315;DHT22;70781;52.510;5.718;2023-08-06T08:51:21;16.60;80.40
81315;DHT22;70781;52.510;5.718;2023-08-06T08:53:53;16.70;80.40
81315;DHT22;70781;52.510;5.718;2023-08-06T08:56:26;16.70;80.40
81315;DHT22;70781;52.510;5.718;2023-08-06T08:58:55;16.70;80.40
81315;DHT22;70781;52.510;5.718;2023-08-06T09:01:25;16.80;80.40
81315;DHT22;70781;52.510;5.718;2023-08-06T09:03:55;16.80;80.40
81315;DHT22;70781;52.510;5.718;2023-08-06T09:06:26;16.80;80.30
81315;DHT22;70781;52.510;5.718;2023-08-06T09:09:01;16.80;80.30
81315;DHT22;70781;52.510;5.718;2023-08-06T09:11:39;16.80;80.40
81315;DHT22;70781;52.510;5.718;2023-08-06T09:14:11;16.90;80.30
81315;DHT22;70781;52.510;5.718;2023-08-06T09:16:40;16.90;80.30
81315;DHT22;70781;52.510;5.718;2023-08-06T09:19:10;16.90;80.30
81315;DHT22;70781;52.510;5.718;2023-08-06T09:21:42;16.90;80.30
81315;DHT22;70781;52.510;5.718;2023-08-06T09:24:14;17.00;80.40
81315;DHT22;70781;52.510;5.718;2023-08-06T09:26:46;17.00;80.30
81315;DHT22;70781;52.510;5.718;2023-08-06T09:29:15;17.00;80.40
81315;DHT22;70781;52.510;5.718;2023-08-06T09:31:46;17.00;80.40
81315;DHT22;70781;52.510;5.718;2023-08-06T09:34:16;17.00;80.50
81315;DHT22;70781;52.510;5.718;2023-08-06T09:36:47;17.00;80.50
81315;DHT22;70781;52.510;5.718;2023-08-06T09:39:18;17.10;80.50
81315;DHT22;70781;52.510;5.718;2023-08-06T09:41:55;17.10;80.50
81315;DHT22;70781;52.510;5.718;2023-08-06T09:44:26;17.10;80.60
81315;DHT22;70781;52.510;5.718;2023-08-06T09:46:57;17.20;80.70
81315;DHT22;70781;52.510;5.718;2023-08-06T09:49:27;17.20;80.70
81315;DHT22;70781;52.510;5.718;2023-08-06T09:51:57;17.20;80.60
81315;DHT22;70781;52.510;5.718;2023-08-06T09:54:27;17.20;80.60
81315;DHT22;70781;52.510;5.718;2023-08-06T09:56:59;17.30;80.70
81315;DHT22;70781;52.510;5.718;2023-08-06T09:59:28;17.40;80.70
81315;DHT22;70781;52.510;5.718;2023-08-06T10:01:58;17.40;80.70
81315;DHT22;70781;52.510;5.718;2023-08-06T10:04:29;17.50;80.60
81315;DHT22;70781;52.510;5.718;2023-08-06T10:06:58;17.50;80.60
81315;DHT22;70781;52.510;5.718;2023-08-06T10:09:28;17.50;80.60
81315;DHT22;70781;52.510;5.718;2023-08-06T10:12:00;17.50;80.70
81315;DHT22;70781;52.510;5.718;2023-08-06T10:14:33;17.60;80.50
81315;DHT22;70781;52.510;5.718;2023-08-06T10:17:03;17.60;80.50
81315;DHT22;70781;52.510;5.718;2023-08-06T10:19:33;17.70;80.50
81315;DHT22;70781;52.510;5.718;2023-08-06T10:22:09;17.70;80.50
81315;DHT22;70781;52.510;5.718;2023-08-06T10:24:46;17.80;80.50
81315;DHT22;70781;52.510;5.718;2023-08-06T10:27:23;17.80;80.50
81315;DHT22;70781;52.510;5.718;2023-08-06T10:30:09;17.80;80.50
81315;DHT22;70781;52.510;5.718;2023-08-06T10:32:50;17.80;80.50
81315;DHT22;70781;52.510;5.718;2023-08-06T10:35:30;17.80;80.50
81315;DHT22;70781;52.510;5.718;2023-08-06T10:38:03;17.90;80.40
81315;DHT22;70781;52.510;5.718;2023-08-06T10:40:32;17.90;80.40
81315;DHT22;70781;52.510;5.718;2023-08-06T10:43:04;17.90;80.40
81315;DHT22;70781;52.510;5.718;2023-08-06T10:45:37;17.90;80.30
81315;DHT22;70781;52.510;5.718;2023-08-06T10:48:06;17.90;80.30
81315;DHT22;70781;52.510;5.718;2023-08-06T10:50:35;17.90;80.30
81315;DHT22;70781;52.510;5.718;2023-08-06T10:53:05;17.80;80.30
81315;DHT22;70781;52.510;5.718;2023-08-06T10:55:35;17.80;80.30
81315;DHT22;70781;52.510;5.718;2023-08-06T10:58:07;17.80;80.30
81315;DHT22;70781;52.510;5.718;2023-08-06T11:00:36;17.80;80.50
81315;DHT22;70781;52.510;5.718;2023-08-06T11:03:05;17.80;80.50
81315;DHT22;70781;52.510;5.718;2023-08-06T11:05:35;17.80;80.50
81315;DHT22;70781;52.510;5.718;2023-08-06T11:08:04;17.80;80.50
81315;DHT22;70781;52.510;5.718;2023-08-06T11:10:34;17.80;80.50
81315;DHT22;70781;52.510;5.718;2023-08-06T11:13:03;17.80;80.50
81315;DHT22;70781;52.510;5.718;2023-08-06T11:15:36;17.90;80.50
81315;DHT22;70781;52.510;5.718;2023-08-06T11:18:06;18.00;80.50
81315;DHT22;70781;52.510;5.718;2023-08-06T11:20:35;18.00;80.50
81315;DHT22;70781;52.510;5.718;2023-08-06T11:23:05;18.00;80.50
81315;DHT22;70781;52.510;5.718;2023-08-06T11:25:36;18.00;80.50
81315;DHT22;70781;52.510;5.718;2023-08-06T11:28:05;18.00;80.60
81315;DHT22;70781;52.510;5.718;2023-08-06T11:30:37;18.00;80.60
81315;DHT22;70781;52.510;5.718;2023-08-06T11:33:07;18.00;80.60
81315;DHT22;70781;52.510;5.718;2023-08-06T11:35:37;18.00;80.60
81315;DHT22;70781;52.510;5.718;2023-08-06T11:38:07;18.10;80.60
81315;DHT22;70781;52.510;5.718;2023-08-06T11:40:36;18.10;80.50
81315;DHT22;70781;52.510;5.718;2023-08-06T11:43:05;18.10;80.50
81315;DHT22;70781;52.510;5.718;2023-08-06T11:45:37;18.10;80.50
81315;DHT22;70781;52.510;5.718;2023-08-06T11:48:07;18.20;80.50
81315;DHT22;70781;52.510;5.718;2023-08-06T11:50:37;18.20;80.60
81315;DHT22;70781;52.510;5.718;2023-08-06T11:53:07;18.20;80.60
81315;DHT22;70781;52.510;5.718;2023-08-06T11:55:36;18.20;80.60
81315;DHT22;70781;52.510;5.718;2023-08-06T11:58:05;18.30;80.50
81315;DHT22;70781;52.510;5.718;2023-08-06T12:00:37;18.30;80.50
81315;DHT22;70781;52.510;5.718;2023-08-06T12:03:06;18.20;80.50
81315;DHT22;70781;52.510;5.718;2023-08-06T12:05:36;18.20;80.60
81315;DHT22;70781;52.510;5.718;2023-08-06T12:08:05;18.20;80.60
81315;DHT22;70781;52.510;5.718;2023-08-06T12:10:34;18.10;80.60
81315;DHT22;70781;52.510;5.718;2023-08-06T12:13:03;18.10;80.60
81315;DHT22;70781;52.510;5.718;2023-08-06T12:15:33;18.00;80.70
81315;DHT22;70781;52.510;5.718;2023-08-06T12:18:04;18.00;80.70
81315;DHT22;70781;52.510;5.718;2023-08-06T12:20:34;18.00;80.70
81315;DHT22;70781;52.510;5.718;2023-08-06T12:23:04;18.00;80.60
81315;DHT22;70781;52.510;5.718;2023-08-06T12:25:34;17.80;80.60
81315;DHT22;70781;52.510;5.718;2023-08-06T12:28:04;17.80;80.60
81315;DHT22;70781;52.510;5.718;2023-08-06T12:30:34;17.80;80.60
81315;DHT22;70781;52.510;5.718;2023-08-06T12:33:05;17.80;80.50
81315;DHT22;70781;52.510;5.718;2023-08-06T12:35:35;17.60;80.50
81315;DHT22;70781;52.510;5.718;2023-08-06T12:38:05;17.60;80.60
81315;DHT22;70781;52.510;5.718;2023-08-06T12:40:34;17.60;80.60
81315;DHT22;70781;52.510;5.718;2023-08-06T12:43:03;17.60;80.50
81315;DHT22;70781;52.510;5.718;2023-08-06T12:45:32;17.50;80.50
81315;DHT22;70781;52.510;5.718;2023-08-06T12:48:05;17.50;80.50
81315;DHT22;70781;52.510;5.718;2023-08-06T12:50:34;17.50;80.50
81315;DHT22;70781;52.510;5.718;2023-08-06T12:53:03;17.50;80.40
81315;DHT22;70781;52.510;5.718;2023-08-06T12:55:33;17.50;80.40
81315;DHT22;70781;52.510;5.718;2023-08-06T12:58:02;17.60;80.30
81315;DHT22;70781;52.510;5.718;2023-08-06T13:00:31;17.60;80.30
81315;DHT22;70781;52.510;5.718;2023-08-06T13:03:00;17.60;80.20
81315;DHT22;70781;52.510;5.718;2023-08-06T13:05:32;17.60;80.20
81315;DHT22;70781;52.510;5.718;2023-08-06T13:08:02;17.60;80.10
81315;DHT22;70781;52.510;5.718;2023-08-06T13:10:31;17.60;80.10
81315;DHT22;70781;52.510;5.718;2023-08-06T13:13:01;17.70;80.00
81315;DHT22;70781;52.510;5.718;2023-08-06T13:15:30;17.70;80.00
81315;DHT22;70781;52.510;5.718;2023-08-06T13:17:59;17.80;80.00
81315;DHT22;70781;52.510;5.718;2023-08-06T13:20:32;17.80;79.90
81315;DHT22;70781;52.510;5.718;2023-08-06T13:23:02;17.80;79.80
81315;DHT22;70781;52.510;5.718;2023-08-06T13:25:31;17.80;79.80
81315;DHT22;70781;52.510;5.718;2023-08-06T13:28:03;17.80;79.80
81315;DHT22;70781;52.510;5.718;2023-08-06T13:30:32;17.90;79.80
81315;DHT22;70781;52.510;5.718;2023-08-06T13:33:07;18.00;79.70
81315;DHT22;70781;52.510;5.718;2023-08-06T13:35:39;17.90;79.70
81315;DHT22;70781;52.510;5.718;2023-08-06T13:38:08;17.80;79.70
81315;DHT22;70781;52.510;5.718;2023-08-06T13:40:37;17.80;79.60
81315;DHT22;70781;52.510;5.718;2023-08-06T13:43:07;17.80;79.60
81315;DHT22;70781;52.510;5.718;2023-08-06T13:45:36;17.80;79.60
81315;DHT22;70781;52.510;5.718;2023-08-06T13:48:05;17.80;79.50
81315;DHT22;70781;52.510;5.718;2023-08-06T13:50:36;17.80;79.50
81315;DHT22;70781;52.510;5.718;2023-08-06T13:53:07;17.80;79.40
81315;DHT22;70781;52.510;5.718;2023-08-06T13:55:37;17.80;79.40
81315;DHT22;70781;52.510;5.718;2023-08-06T13:58:06;17.70;79.40
81315;DHT22;70781;52.510;5.718;2023-08-06T14:00:36;17.70;79.30
81315;DHT22;70781;52.510;5.718;2023-08-06T14:03:05;17.60;79.20
81315;DHT22;70781;52.510;5.718;2023-08-06T14:05:34;17.60;79.20
81315;DHT22;70781;52.510;5.718;2023-08-06T14:08:06;17.60;79.10
81315;DHT22;70781;52.510;5.718;2023-08-06T14:10:36;17.60;79.10
81315;DHT22;70781;52.510;5.718;2023-08-06T14:13:05;17.70;79.00
81315;DHT22;70781;52.510;5.718;2023-08-06T14:15:34;17.80;79.00
81315;DHT22;70781;52.510;5.718;2023-08-06T14:18:06;17.80;78.80
81315;DHT22;70781;52.510;5.718;2023-08-06T14:20:35;17.80;78.70
81315;DHT22;70781;52.510;5.718;2023-08-06T14:23:07;17.90;78.60
81315;DHT22;70781;52.510;5.718;2023-08-06T14:25:36;18.00;78.50
81315;DHT22;70781;52.510;5.718;2023-08-06T14:28:06;18.00;78.40
81315;DHT22;70781;52.510;5.718;2023-08-06T14:30:36;18.00;78.30
81315;DHT22;70781;52.510;5.718;2023-08-06T14:33:05;18.00;78.30
81315;DHT22;70781;52.510;5.718;2023-08-06T14:35:34;18.00;78.20
81315;DHT22;70781;52.510;5.718;2023-08-06T14:38:03;18.00;78.20
81315;DHT22;70781;52.510;5.718;2023-08-06T14:40:35;18.10;78.20
81315;DHT22;70781;52.510;5.718;2023-08-06T14:43:05;18.10;78.10
81315;DHT22;70781;52.510;5.718;2023-08-06T14:45:37;18.20;78.10
81315;DHT22;70781;52.510;5.718;2023-08-06T14:48:07;18.20;78.00
81315;DHT22;70781;52.510;5.718;2023-08-06T14:50:36;18.20;77.90
81315;DHT22;70781;52.510;5.718;2023-08-06T14:53:06;18.20;77.90
81315;DHT22;70781;52.510;5.718;2023-08-06T14:55:39;18.20;77.90
81315;DHT22;70781;52.510;5.718;2023-08-06T14:58:08;18.20;77.90
81315;DHT22;70781;52.510;5.718;2023-08-06T15:00:37;18.20;77.90
81315;DHT22;70781;52.510;5.718;2023-08-06T15:03:07;18.20;77.90
81315;DHT22;70781;52.510;5.718;2023-08-06T15:05:36;18.20;77.90
81315;DHT22;70781;52.510;5.718;2023-08-06T15:08:06;18.30;77.80
81315;DHT22;70781;52.510;5.718;2023-08-06T15:10:35;18.30;77.70
81315;DHT22;70781;52.510;5.718;2023-08-06T15:13:07;18.30;77.70
81315;DHT22;70781;52.510;5.718;2023-08-06T15:15:36;18.30;77.50
81315;DHT22;70781;52.510;5.718;2023-08-06T15:18:08;18.20;77.50
81315;DHT22;70781;52.510;5.718;2023-08-06T15:20:37;18.20;77.50
81315;DHT22;70781;52.510;5.718;2023-08-06T15:23:06;18.20;77.50
81315;DHT22;70781;52.510;5.718;2023-08-06T15:25:36;18.30;77.50
81315;DHT22;70781;52.510;5.718;2023-08-06T15:28:07;18.20;77.50
81315;DHT22;70781;52.510;5.718;2023-08-06T15:30:36;18.20;77.50
81315;DHT22;70781;52.510;5.718;2023-08-06T15:33:07;18.20;77.50
81315;DHT22;70781;52.510;5.718;2023-08-06T15:35:36;18.10;77.40
81315;DHT22;70781;52.510;5.718;2023-08-06T15:38:05;18.10;77.40
81315;DHT22;70781;52.510;5.718;2023-08-06T15:40:34;18.00;77.40
81315;DHT22;70781;52.510;5.718;2023-08-06T15:43:03;18.00;77.40
81315;DHT22;70781;52.510;5.718;2023-08-06T15:45:35;18.00;77.40
81315;DHT22;70781;52.510;5.718;2023-08-06T15:48:04;18.00;77.30